Aérodrome :
LOGIN :

S'inscrire | Disclaimer

   EN    FR    IT 

 










Légende :    VFR   VFR Marginal   IFR   IFR Intensif   IFR Très Intensif
Visi : 
Plafond : 
>= 8 km
>= 3000ft
5 à 8 km
1000 à 3000 ft
1500m à 5 km
500 à 1000 ft
800 à 1500m
200 à 500 ft
< 800m
< 200 ft
Symboles :   Orages  Brouillard  Fortes neiges  Fortes précipitations  Vent > 20 kt
SIGMETs :   Divers  Orages  Givrage  Turbulence  Onde Orograph.  Cendres Volcan.






- Altitude de l'aérodrome : 294 ft
- Code IATA : NAP


LIRN - Naples Capodichino

DERNIER METAR :
  • 190350Z 08003KT CAVOK 22/17 Q1018 NOSIG

METARs EXPIRÉS :
  • 190320Z 04004KT CAVOK 22/17 Q1018 NOSIG
  • 190250Z VRB02KT CAVOK 23/17 Q1017 NOSIG
  • 190220Z VRB01KT CAVOK 23/16 Q1017 NOSIG
  • 190150Z 24003KT CAVOK 23/16 Q1017 NOSIG
  • 190120Z VRB02KT CAVOK 23/16 Q1017 NOSIG
  • 190050Z 27004KT CAVOK 22/16 Q1017 NOSIG
  • 190020Z VRB01KT CAVOK 23/16 Q1017 NOSIG
  • 182350Z VRB02KT CAVOK 23/17 Q1017 NOSIG
  • 182320Z 03003KT CAVOK 24/17 Q1017 NOSIG

TAF TAF LIRN
Valide du 19 à 00h jusqu'au 20 à 00h UTC


182300Z 1900/1924 VRB05KT CAVOK
BECMG 1908/1910 25010KT
BECMG 1916/1918 VRB05KT



MET'MAP, la Météo Aéronautique d'un coup d'oeil ! - Copyright ORBIFLY Décembre 2007 - Disclaimer

ORBIFLY MET'MAP TEAM :

Programmation & Développement : Alexandra Zaïnal
Sur une idée originale de : Baudouin d'Aumeries
Soutien technique & logistique : Manuel Goepfert
Assistance : Marc-Olivier Méhu




SOURCES & CREDITS :

   NOAA